Time;durP1;ratioP1;P1;durP2;ratioP2;P2;SDS_P1;SDS_P2;PMS_P1;PMS_P2;Temp;Humidity;BMP_temperature;BMP_pressure;BME280_temperature;BME280_humidity;BME280_pressure;Samples;Min_cycle;Max_cycle;Signal;HPM_P1;HPM_P2
2023/01/24 00:00:52;;;;;;;24.17;13.75;;;;;;;3.11;100.00;103458.63;4787350;29;20095;-78
2023/01/24 00:03:18;;;;;;;21.40;12.20;;;;;;;3.11;100.00;103455.91;4788752;29;20058;-77
2023/01/24 00:05:45;;;;;;;23.98;13.52;;;;;;;3.13;100.00;103450.50;4796317;29;20046;-78
2023/01/24 00:08:13;;;;;;;24.30;12.55;;;;;;;3.10;100.00;103454.13;4808220;29;20053;-78
2023/01/24 00:10:38;;;;;;;20.85;11.43;;;;;;;3.20;100.00;103459.47;4807868;29;20038;-78
2023/01/24 00:13:04;;;;;;;23.23;13.05;;;;;;;3.19;100.00;103463.09;4788272;29;20046;-77
2023/01/24 00:15:30;;;;;;;22.95;12.75;;;;;;;3.07;100.00;103451.44;4815670;29;20050;-78
2023/01/24 00:17:56;;;;;;;26.40;13.82;;;;;;;2.99;100.00;103455.09;4802790;29;20050;-78
2023/01/24 00:20:21;;;;;;;23.98;13.05;;;;;;;2.96;100.00;103445.19;4778944;29;20039;-78
2023/01/24 00:22:47;;;;;;;17.83;9.00;;;;;;;3.16;100.00;103455.00;4801940;29;20065;-78
2023/01/24 00:25:12;;;;;;;20.35;11.32;;;;;;;3.08;100.00;103457.75;4800373;29;20375;-78
2023/01/24 00:27:38;;;;;;;21.80;12.38;;;;;;;2.89;100.00;103435.31;4789778;29;20510;-78
2023/01/24 00:30:05;;;;;;;22.88;11.23;;;;;;;3.00;100.00;103441.56;4812452;29;20126;-78
2023/01/24 00:32:31;;;;;;;20.55;11.07;;;;;;;3.10;100.00;103453.25;4804013;29;20151;-78
2023/01/24 00:34:58;;;;;;;22.80;11.65;;;;;;;3.12;100.00;103444.19;4779869;29;20043;-78
2023/01/24 00:37:25;;;;;;;22.27;12.40;;;;;;;3.16;100.00;103444.16;4787562;29;20380;-78
2023/01/24 00:39:50;;;;;;;19.00;11.25;;;;;;;3.30;100.00;103442.28;4795996;29;20065;-77
2023/01/24 00:42:16;;;;;;;22.15;12.43;;;;;;;3.28;100.00;103447.72;4813142;29;20047;-77
2023/01/24 00:44:41;;;;;;;20.95;12.10;;;;;;;3.13;100.00;103446.00;4817813;29;20072;-78
2023/01/24 00:47:07;;;;;;;18.60;10.68;;;;;;;3.17;100.00;103440.56;4796991;29;20410;-78
2023/01/24 00:49:32;;;;;;;19.20;10.60;;;;;;;3.10;100.00;103435.19;4782797;29;20114;-78
2023/01/24 00:51:58;;;;;;;21.20;11.80;;;;;;;3.16;100.00;103431.53;4797716;29;20067;-77
2023/01/24 00:54:23;;;;;;;18.75;10.65;;;;;;;3.11;100.00;103434.25;4803653;29;20155;-78
2023/01/24 00:56:49;;;;;;;24.65;12.65;;;;;;;3.07;100.00;103439.72;4799153;29;20065;-78
2023/01/24 00:59:14;;;;;;;14.52;8.82;;;;;;;3.07;100.00;103427.06;4796410;29;20038;-78
2023/01/24 01:01:39;;;;;;;25.17;12.10;;;;;;;3.05;100.00;103431.59;4799062;29;20391;-77
2023/01/24 01:04:05;;;;;;;21.15;12.50;;;;;;;3.08;100.00;103436.09;4796970;29;20078;-78
2023/01/24 01:06:31;;;;;;;24.73;12.40;;;;;;;3.08;100.00;103427.97;4814452;29;20440;-77
2023/01/24 01:08:56;;;;;;;21.02;12.02;;;;;;;3.15;100.00;103426.13;4804026;29;20118;-77
2023/01/24 01:11:22;;;;;;;23.60;12.52;;;;;;;2.93;100.00;103415.44;4803289;29;20046;-77
2023/01/24 01:13:48;;;;;;;24.20;13.10;;;;;;;3.00;100.00;103440.66;4806663;29;20104;-77
2023/01/24 01:16:17;;;;;;;21.60;12.27;;;;;;;3.01;100.00;103439.75;4788596;29;20043;-77
2023/01/24 01:18:43;;;;;;;21.73;11.68;;;;;;;2.87;100.00;103421.78;4800103;29;20042;-77
2023/01/24 01:21:12;;;;;;;20.70;11.98;;;;;;;2.90;100.00;103432.59;4813213;29;20369;-78
2023/01/24 01:23:37;;;;;;;22.80;11.40;;;;;;;2.94;100.00;103430.78;4783348;29;20034;-77
2023/01/24 01:26:06;;;;;;;22.08;12.68;;;;;;;2.96;100.00;103430.75;4799942;29;20062;-77
2023/01/24 01:28:32;;;;;;;23.55;11.82;;;;;;;2.87;100.00;103429.91;4822152;29;20038;-77
2023/01/24 01:30:58;;;;;;;26.70;12.88;;;;;;;2.87;100.00;103429.91;4819041;29;20487;-77
2023/01/24 01:33:24;;;;;;;25.85;12.90;;;;;;;2.81;100.00;103429.94;4790039;29;20132;-77
2023/01/24 01:35:50;;;;;;;23.00;13.05;;;;;;;2.83;100.00;103435.34;4822379;29;20065;-78
2023/01/24 01:38:16;;;;;;;24.92;12.65;;;;;;;2.82;100.00;103438.94;4823715;29;20039;-77
2023/01/24 01:40:42;;;;;;;23.38;13.20;;;;;;;2.76;100.00;103429.06;4801204;29;20042;-77
2023/01/24 01:43:16;;;;;;;25.70;13.23;;;;;;;2.78;100.00;103431.75;4812705;29;20099;-77
2023/01/24 01:45:43;;;;;;;23.83;13.82;;;;;;;2.82;100.00;103439.84;4807111;29;20506;-77
2023/01/24 01:48:21;;;;;;;20.50;11.15;;;;;;;2.82;100.00;103441.63;4811641;29;20041;-77
2023/01/24 01:50:56;;;;;;;21.90;12.02;;;;;;;2.80;100.00;103438.94;4816739;29;20062;-77
2023/01/24 01:53:25;;;;;;;27.20;14.52;;;;;;;2.63;100.00;103425.50;4804535;29;20039;-76
2023/01/24 01:55:58;;;;;;;24.58;13.38;;;;;;;2.70;100.00;103435.38;4815682;29;20045;-78
2023/01/24 01:58:27;;;;;;;28.23;13.98;;;;;;;2.65;100.00;103433.59;4813123;29;20047;-78
2023/01/24 02:00:53;;;;;;;23.88;13.15;;;;;;;2.63;100.00;103428.19;4810668;29;20038;-77
2023/01/24 02:03:40;;;;;;;23.75;13.05;;;;;;;2.74;100.00;103439.00;4797752;29;20070;-79
2023/01/24 02:06:25;;;;;;;23.98;12.57;;;;;;;2.69;100.00;103432.69;4798275;29;20067;-78
2023/01/24 02:08:52;;;;;;;26.35;13.57;;;;;;;2.62;100.00;103441.72;4812404;29;20050;-78
2023/01/24 02:16:46;;;;;;;25.35;13.80;;;;;;;2.62;100.00;103431.81;4814576;29;20087;-78
2023/01/24 02:19:36;;;;;;;20.83;12.27;;;;;;;2.69;100.00;103440.78;4801360;29;20043;-77
2023/01/24 02:22:13;;;;;;;25.75;13.68;;;;;;;2.62;100.00;103431.81;4803699;29;20391;-77
2023/01/24 02:24:46;;;;;;;25.13;12.93;;;;;;;2.74;100.00;103436.28;4807529;29;20056;-76
2023/01/24 02:27:11;;;;;;;25.73;12.65;;;;;;;2.72;100.00;103443.47;4796526;29;20514;-77
2023/01/24 02:29:37;;;;;;;22.92;12.27;;;;;;;2.60;100.00;103446.25;4798269;29;20086;-77
2023/01/24 02:32:06;;;;;;;24.50;13.30;;;;;;;2.52;100.00;103430.94;4781850;29;20440;-77
2023/01/24 02:34:32;;;;;;;22.10;12.18;;;;;;;2.57;100.00;103437.25;4806475;29;20026;-76
2023/01/24 02:37:05;;;;;;;23.52;12.63;;;;;;;2.56;100.00;103434.56;4791176;29;20096;-77
2023/01/24 02:40:01;;;;;;;27.73;13.73;;;;;;;2.52;100.00;103438.16;4804282;29;20057;-77
2023/01/24 02:42:33;;;;;;;19.65;11.50;;;;;;;2.47;100.00;103421.94;4814171;29;20038;-77
2023/01/24 02:45:37;;;;;;;23.85;12.63;;;;;;;2.53;100.00;103438.16;4795366;29;20095;-76
2023/01/24 02:48:03;;;;;;;20.58;12.07;;;;;;;2.49;100.00;103428.28;4740592;30;20065;-78
2023/01/24 02:53:28;;;;;;;25.10;13.38;;;;;;;2.51;100.00;103434.56;4735792;30;20043;-77
2023/01/24 02:53:31;;;;;;;21.63;11.68;;;;;;;2.46;100.00;103427.34;4775590;29;20130;-77
2023/01/24 02:58:46;;;;;;;24.02;13.00;;;;;;;2.45;100.00;103431.00;4821224;29;20175;-77
2023/01/24 03:01:25;;;;;;;28.13;14.20;;;;;;;2.55;100.00;103436.34;4788952;29;20072;-77
2023/01/24 03:03:52;;;;;;;25.50;14.70;;;;;;;2.56;100.00;103429.16;4788619;29;20521;-77
2023/01/24 03:06:18;;;;;;;26.30;13.93;;;;;;;2.57;100.00;103428.22;4791081;29;20361;-77
2023/01/24 03:08:44;;;;;;;27.58;14.35;;;;;;;2.46;100.00;103409.34;4796851;29;20518;-77
2023/01/24 03:11:11;;;;;;;30.95;14.88;;;;;;;2.52;100.00;103433.66;4803313;29;20034;-77
2023/01/24 03:35:33;;;;;;;27.02;13.43;;;;;;;2.41;100.00;103412.97;4802794;29;20042;-77
2023/01/24 03:40:43;;;;;;;27.90;14.02;;;;;;;2.41;100.00;103408.47;4816050;29;20487;-77
2023/01/24 03:43:09;;;;;;;28.23;14.20;;;;;;;2.45;100.00;103407.53;4790769;29;20041;-78
2023/01/24 03:45:38;;;;;;;22.88;12.80;;;;;;;2.52;100.00;103397.59;4812421;29;20071;-77
2023/01/24 03:48:12;;;;;;;27.70;14.55;;;;;;;2.41;100.00;103411.19;4792686;29;20031;-77
2023/01/24 03:53:25;;;;;;;27.50;14.40;;;;;;;2.39;100.00;103411.19;4800700;29;20073;-78
2023/01/24 03:56:00;;;;;;;24.02;13.77;;;;;;;2.50;100.00;103413.81;4804338;29;20034;-76
2023/01/24 03:58:27;;;;;;;27.40;14.88;;;;;;;2.49;100.00;103406.66;4785066;29;20073;-76
2023/01/24 04:00:53;;;;;;;23.35;13.10;;;;;;;2.49;100.00;103416.53;4778025;29;20091;-76
2023/01/24 04:03:19;;;;;;;23.95;13.38;;;;;;;2.38;100.00;103420.19;4814948;29;20043;-77
2023/01/24 04:05:49;;;;;;;24.40;13.55;;;;;;;2.34;100.00;103412.09;4814782;29;20141;-77
2023/01/24 04:08:16;;;;;;;22.83;12.65;;;;;;;2.53;100.00;103415.63;4793985;29;20069;-77
2023/01/24 04:10:42;;;;;;;24.88;13.60;;;;;;;2.43;100.00;103421.97;4793661;29;20077;-79
2023/01/24 04:13:11;;;;;;;26.02;14.27;;;;;;;2.41;100.00;103418.38;4802026;29;20071;-78
2023/01/24 04:15:37;;;;;;;27.75;14.88;;;;;;;2.37;100.00;103431.91;4805937;29;20483;-77
2023/01/24 04:18:04;;;;;;;28.45;15.40;;;;;;;2.23;100.00;103385.09;4817851;29;20038;-79
2023/01/24 04:20:32;;;;;;;25.42;13.20;;;;;;;2.30;100.00;103416.59;4813955;29;20065;-79
2023/01/24 04:23:05;;;;;;;28.98;15.60;;;;;;;2.26;100.00;103401.28;4818137;29;20042;-78
2023/01/24 04:25:31;;;;;;;25.75;14.75;;;;;;;2.36;100.00;103426.50;4797313;29;20035;-78
2023/01/24 04:27:56;;;;;;;26.60;14.88;;;;;;;2.32;100.00;103428.31;4787992;29;20047;-78
2023/01/24 04:30:22;;;;;;;28.85;15.80;;;;;;;2.30;100.00;103416.59;4814141;29;20035;-78
2023/01/24 04:32:47;;;;;;;27.15;14.68;;;;;;;2.37;100.00;103426.47;4793596;29;20056;-78
2023/01/24 04:35:21;;;;;;;28.17;15.90;;;;;;;2.35;100.00;103417.50;4792540;29;20042;-78
2023/01/24 04:37:46;;;;;;;25.73;14.85;;;;;;;2.27;100.00;103418.44;4814919;29;20046;-78
2023/01/24 04:40:13;;;;;;;25.42;14.45;;;;;;;2.29;100.00;103425.59;4789713;29;20040;-78
2023/01/24 04:42:38;;;;;;;25.50;15.13;;;;;;;2.32;100.00;103417.50;4799116;29;20030;-78
2023/01/24 04:45:05;;;;;;;27.02;14.70;;;;;;;2.41;100.00;103419.28;4801876;29;20406;-78
2023/01/24 04:47:31;;;;;;;30.15;14.90;;;;;;;2.31;100.00;103421.13;4811524;29;20069;-78
2023/01/24 04:49:56;;;;;;;28.30;14.45;;;;;;;2.36;100.00;103419.31;4793743;29;20062;-78
2023/01/24 04:52:22;;;;;;;25.50;13.30;;;;;;;2.41;100.00;103421.06;4786452;29;20393;-78
2023/01/24 04:54:47;;;;;;;27.10;13.25;;;;;;;2.41;100.00;103412.97;4813901;29;20042;-78
2023/01/24 04:57:13;;;;;;;24.17;14.00;;;;;;;2.35;100.00;103422.91;4787025;29;20034;-78
2023/01/24 04:59:38;;;;;;;24.13;13.82;;;;;;;2.32;100.00;103427.41;4768825;29;20043;-78
2023/01/24 05:02:04;;;;;;;30.90;15.52;;;;;;;2.30;100.00;103416.59;4792126;29;20122;-79
2023/01/24 05:04:30;;;;;;;26.58;14.75;;;;;;;2.30;100.00;103421.13;4796757;29;20066;-78
2023/01/24 05:06:55;;;;;;;24.42;14.02;;;;;;;2.37;100.00;103426.47;4800177;29;20417;-78
2023/01/24 05:09:21;;;;;;;26.67;14.40;;;;;;;2.25;100.00;103429.25;4798473;29;20046;-78
2023/01/24 05:11:46;;;;;;;25.70;13.45;;;;;;;2.30;100.00;103421.13;4786610;29;20043;-78
2023/01/24 05:14:12;;;;;;;28.08;15.00;;;;;;;2.33;100.00;103427.41;4787346;29;20043;-78
2023/01/24 05:16:37;;;;;;;25.60;13.80;;;;;;;2.24;100.00;103432.84;4796227;29;20087;-78
2023/01/24 05:19:03;;;;;;;24.92;13.80;;;;;;;2.29;100.00;103439.13;4793307;29;20054;-78
2023/01/24 05:21:29;;;;;;;24.77;14.23;;;;;;;2.30;100.00;103426.53;4792663;29;20426;-77
2023/01/24 05:23:54;;;;;;;24.83;13.95;;;;;;;2.27;100.00;103429.25;4819057;29;20053;-77
2023/01/24 05:26:22;;;;;;;24.67;13.90;;;;;;;2.27;100.00;103430.13;4800005;29;20061;-78
2023/01/24 05:28:49;;;;;;;27.60;14.10;;;;;;;2.31;100.00;103431.94;4819160;29;20034;-78
2023/01/24 05:31:14;;;;;;;27.20;14.02;;;;;;;2.34;100.00;103437.31;4797926;29;20075;-77
2023/01/24 05:33:41;;;;;;;23.73;13.73;;;;;;;2.30;100.00;103432.81;4810119;29;20055;-78
2023/01/24 05:36:11;;;;;;;28.23;14.48;;;;;;;2.32;100.00;103433.72;4799060;29;20039;-76
2023/01/24 05:38:37;;;;;;;27.35;13.75;;;;;;;2.29;100.00;103443.63;4790974;29;20046;-76
2023/01/24 05:41:05;;;;;;;23.55;12.93;;;;;;;2.35;100.00;103441.81;4807332;29;20034;-77
2023/01/24 05:43:31;;;;;;;20.33;12.25;;;;;;;2.40;100.00;103444.50;4826065;29;20042;-76
2023/01/24 05:46:02;;;;;;;27.33;14.32;;;;;;;2.33;100.00;103443.63;4821963;29;20039;-77
2023/01/24 05:48:27;;;;;;;28.83;14.73;;;;;;;2.33;100.00;103446.34;4813970;29;20232;-76
2023/01/24 05:51:00;;;;;;;27.05;14.52;;;;;;;2.32;100.00;103444.53;4813210;29;20078;-77
2023/01/24 05:53:27;;;;;;;26.63;14.63;;;;;;;2.38;100.00;103463.44;4795426;29;20121;-78
2023/01/24 05:56:14;;;;;;;26.98;14.73;;;;;;;2.44;100.00;103451.69;4805555;29;20083;-77
2023/01/24 05:58:41;;;;;;;25.73;14.98;;;;;;;2.39;100.00;103454.44;4819689;29;20046;-77
2023/01/24 06:01:16;;;;;;;28.05;14.45;;;;;;;2.35;100.00;103457.16;4805611;29;20092;-77
2023/01/24 06:03:42;;;;;;;24.80;14.23;;;;;;;2.39;100.00;103464.34;4797324;29;20054;-77
2023/01/24 06:06:12;;;;;;;19.92;11.82;;;;;;;2.34;100.00;103466.16;4824174;29;20042;-77
2023/01/24 06:08:39;;;;;;;28.40;15.30;;;;;;;2.31;100.00;103463.44;4822932;29;20096;-77
2023/01/24 06:11:12;;;;;;;28.23;13.63;;;;;;;2.39;100.00;103467.03;4807439;29;20039;-76
2023/01/24 06:13:38;;;;;;;28.70;13.98;;;;;;;2.36;100.00;103467.97;4812034;29;20068;-76
2023/01/24 06:16:06;;;;;;;26.98;14.60;;;;;;;2.29;100.00;103466.16;4799936;29;20042;-77
2023/01/24 06:18:32;;;;;;;23.08;12.77;;;;;;;2.34;100.00;103472.44;4811793;29;20084;-76
2023/01/24 06:21:03;;;;;;;28.10;14.73;;;;;;;2.36;100.00;103470.66;4780620;29;20038;-77
2023/01/24 06:23:29;;;;;;;23.00;12.13;;;;;;;2.23;100.00;103449.97;4781621;29;20491;-76
2023/01/24 06:25:55;;;;;;;31.42;14.57;;;;;;;2.26;100.00;103474.25;4797112;29;20051;-76
2023/01/24 06:28:21;;;;;;;26.52;14.25;;;;;;;2.08;100.00;103450.88;4807534;29;20078;-76
2023/01/24 06:31:01;;;;;;;23.58;13.35;;;;;;;2.33;100.00;103476.06;4766406;29;20043;-76
2023/01/24 06:33:40;;;;;;;25.55;13.65;;;;;;;2.32;100.00;103476.97;4797933;29;20034;-76
2023/01/24 06:36:43;;;;;;;24.80;13.23;;;;;;;2.28;100.00;103477.88;4797907;29;20046;-76
2023/01/24 06:39:13;;;;;;;26.95;14.77;;;;;;;2.29;100.00;103485.06;4781310;29;20038;-76
2023/01/24 06:41:39;;;;;;;25.80;14.27;;;;;;;2.23;100.00;103485.13;4812328;29;20046;-76
2023/01/24 06:44:07;;;;;;;27.73;13.95;;;;;;;2.26;100.00;103478.78;4797860;29;20035;-76
2023/01/24 06:46:32;;;;;;;25.95;14.25;;;;;;;2.28;100.00;103488.69;4804883;29;20515;-77
2023/01/24 06:48:58;;;;;;;25.25;13.25;;;;;;;2.32;100.00;103485.06;4779449;29;20123;-76
2023/01/24 06:51:23;;;;;;;27.45;13.38;;;;;;;2.22;100.00;103477.91;4791784;29;20049;-77
2023/01/24 06:53:49;;;;;;;28.63;13.75;;;;;;;2.18;100.00;103478.78;4784645;29;20050;-77
2023/01/24 06:56:14;;;;;;;25.63;14.02;;;;;;;2.22;100.00;103486.00;4780211;29;20050;-78
2023/01/24 06:58:40;;;;;;;23.10;13.18;;;;;;;2.22;100.00;103485.13;4780576;29;20125;-77
2023/01/24 07:01:05;;;;;;;24.77;12.75;;;;;;;2.24;100.00;103484.19;4796661;29;20065;-77
2023/01/24 07:03:31;;;;;;;22.73;13.35;;;;;;;2.32;100.00;103485.06;4764660;29;20039;-77
2023/01/24 07:05:57;;;;;;;24.40;13.30;;;;;;;2.32;100.00;103493.19;4794014;29;20126;-76
2023/01/24 07:08:22;;;;;;;22.75;12.85;;;;;;;2.12;100.00;103468.00;4810429;29;20051;-76
2023/01/24 07:10:48;;;;;;;24.13;13.20;;;;;;;2.22;100.00;103502.22;4792602;29;20042;-76
2023/01/24 07:13:14;;;;;;;20.92;11.93;;;;;;;2.18;100.00;103495.94;4809820;29;20046;-76
2023/01/24 07:15:40;;;;;;;22.30;12.23;;;;;;;2.31;100.00;103496.81;4807578;29;20047;-76
2023/01/24 07:18:16;;;;;;;22.55;12.15;;;;;;;2.37;100.00;103504.00;4817356;29;20049;-76
2023/01/24 07:20:41;;;;;;;28.15;13.88;;;;;;;2.21;100.00;103500.41;4807723;29;20050;-76
2023/01/24 07:23:28;;;;;;;20.67;11.00;;;;;;;2.32;100.00;103511.22;4809080;29;20042;-76
2023/01/24 07:25:54;;;;;;;22.52;11.85;;;;;;;2.24;100.00;103508.53;4794384;29;20073;-76
2023/01/24 07:28:20;;;;;;;24.00;12.02;;;;;;;2.20;100.00;103518.44;4785233;29;20137;-77
2023/01/24 07:30:47;;;;;;;21.23;11.05;;;;;;;2.21;100.00;103524.72;4809136;29;20467;-76
2023/01/24 07:33:16;;;;;;;26.67;13.57;;;;;;;2.08;100.00;103529.25;4809547;29;20049;-77
2023/01/24 07:35:42;;;;;;;23.73;11.30;;;;;;;2.12;100.00;103532.88;4816971;29;20058;-76
2023/01/24 07:38:08;;;;;;;21.58;11.82;;;;;;;1.91;100.00;103506.75;4784956;29;20053;-77
2023/01/24 07:40:35;;;;;;;22.73;12.32;;;;;;;2.20;100.00;103523.84;4814019;29;20038;-76
2023/01/24 07:43:01;;;;;;;21.83;11.10;;;;;;;2.16;100.00;103526.53;4806794;29;20043;-77
2023/01/24 07:45:27;;;;;;;23.67;11.68;;;;;;;2.08;100.00;103531.06;4784554;29;20555;-75
2023/01/24 07:47:56;;;;;;;18.50;10.43;;;;;;;2.15;100.00;103546.38;4819109;29;20451;-75
2023/01/24 07:50:25;;;;;;;24.85;12.10;;;;;;;2.04;100.00;103531.97;4791811;29;20085;-77
2023/01/24 07:52:54;;;;;;;29.67;11.95;;;;;;;2.07;100.00;103548.19;4784394;29;20039;-77
2023/01/24 07:55:20;;;;;;;23.92;12.38;;;;;;;2.02;100.00;103537.38;4797216;29;20133;-76
2023/01/24 07:57:46;;;;;;;22.88;11.98;;;;;;;2.05;100.00;103533.75;4796549;29;20046;-78
2023/01/24 08:00:13;;;;;;;23.52;12.85;;;;;;;2.07;100.00;103540.97;4820511;29;20068;-75
2023/01/24 08:02:39;;;;;;;20.67;11.23;;;;;;;2.12;100.00;103541.88;4806885;29;20042;-76
2023/01/24 08:05:05;;;;;;;22.02;12.13;;;;;;;2.07;100.00;103542.78;4811593;29;20514;-77
2023/01/24 08:07:31;;;;;;;20.25;10.95;;;;;;;2.12;100.00;103544.56;4793018;29;20046;-77
2023/01/24 08:09:56;;;;;;;24.73;12.63;;;;;;;2.03;100.00;103552.66;4801628;29;20452;-76
2023/01/24 08:12:22;;;;;;;23.38;11.60;;;;;;;2.11;100.00;103552.69;4793759;29;20067;-77
2023/01/24 08:14:47;;;;;;;25.02;12.93;;;;;;;2.18;100.00;103557.16;4809205;29;20058;-78
2023/01/24 08:17:13;;;;;;;24.70;12.98;;;;;;;2.20;100.00;103566.19;4805462;29;20114;-78
2023/01/24 08:19:39;;;;;;;24.15;12.20;;;;;;;2.15;100.00;103563.50;4782997;29;20047;-78
2023/01/24 08:22:05;;;;;;;24.30;12.15;;;;;;;2.22;100.00;103566.19;4789744;29;20035;-78
2023/01/24 08:24:31;;;;;;;24.83;12.30;;;;;;;2.27;100.00;103564.38;4831623;29;20038;-78
2023/01/24 08:26:56;;;;;;;24.98;13.10;;;;;;;2.23;100.00;103554.47;4809077;29;20089;-79
2023/01/24 08:29:22;;;;;;;22.98;11.82;;;;;;;2.25;100.00;103561.69;4799198;29;20039;-77
2023/01/24 08:31:48;;;;;;;23.30;12.18;;;;;;;2.32;100.00;103565.28;4826769;29;20073;-77
2023/01/24 08:34:13;;;;;;;28.65;13.40;;;;;;;2.16;100.00;103562.56;4812945;29;20039;-78
2023/01/24 08:36:39;;;;;;;22.05;11.50;;;;;;;2.28;100.00;103569.81;4818432;29;20550;-77
2023/01/24 08:39:05;;;;;;;22.15;11.82;;;;;;;2.14;100.00;103574.31;4809494;29;20053;-77
2023/01/24 08:41:30;;;;;;;24.20;11.90;;;;;;;2.18;100.00;103565.28;4813307;29;20399;-78
2023/01/24 08:43:56;;;;;;;21.83;11.27;;;;;;;2.14;100.00;103568.91;4809394;29;20058;-78
2023/01/24 08:46:21;;;;;;;22.52;11.85;;;;;;;2.13;100.00;103575.19;4799611;29;20035;-77
2023/01/24 08:48:47;;;;;;;22.33;11.88;;;;;;;2.15;100.00;103559.91;4826389;29;20050;-77
2023/01/24 08:51:12;;;;;;;19.02;11.02;;;;;;;2.19;100.00;103561.69;4794911;29;20066;-78
2023/01/24 08:53:41;;;;;;;20.08;10.63;;;;;;;2.15;100.00;103568.91;4801059;29;20038;-78
2023/01/24 08:56:07;;;;;;;19.80;11.15;;;;;;;2.13;100.00;103573.41;4783327;29;20066;-78
2023/01/24 08:58:33;;;;;;;24.42;12.02;;;;;;;2.28;100.00;103571.56;4814070;29;20068;-79
2023/01/24 09:01:09;;;;;;;22.30;11.48;;;;;;;2.21;100.00;103576.09;4818902;29;20038;-78
2023/01/24 09:03:35;;;;;;;18.92;10.57;;;;;;;2.26;100.00;103586.91;4811054;29;20046;-78
2023/01/24 09:06:00;;;;;;;21.08;12.02;;;;;;;2.20;100.00;103579.72;4819577;29;20073;-78
2023/01/24 09:08:26;;;;;;;18.45;11.00;;;;;;;2.21;100.00;103589.59;4788244;29;20414;-78
2023/01/24 09:10:52;;;;;;;19.77;10.38;;;;;;;2.28;100.00;103585.09;4814231;29;20034;-78
2023/01/24 09:13:17;;;;;;;23.55;11.27;;;;;;;2.28;100.00;103590.50;4811326;29;20066;-78
2023/01/24 09:15:43;;;;;;;21.55;11.32;;;;;;;2.29;100.00;103595.00;4826018;29;20042;-79
2023/01/24 09:18:09;;;;;;;21.75;10.77;;;;;;;2.27;100.00;103594.13;4809670;29;20034;-77
2023/01/24 09:20:35;;;;;;;19.25;11.05;;;;;;;2.30;100.00;103594.13;4792972;29;20038;-78
2023/01/24 09:23:08;;;;;;;24.65;12.52;;;;;;;2.29;100.00;103587.81;4783934;29;20064;-78
2023/01/24 09:25:33;;;;;;;22.90;11.88;;;;;;;2.15;100.00;103581.53;4810639;29;20048;-78
2023/01/24 09:27:58;;;;;;;21.15;11.57;;;;;;;2.29;100.00;103595.00;4807289;29;20141;-77
2023/01/24 09:30:24;;;;;;;19.80;10.82;;;;;;;2.22;100.00;103587.81;4809932;29;20193;-77
2023/01/24 09:32:50;;;;;;;20.55;11.77;;;;;;;2.26;100.00;103590.50;4791608;29;20050;-78
2023/01/24 09:35:15;;;;;;;23.77;12.35;;;;;;;2.23;100.00;103587.81;4792381;29;20136;-78
2023/01/24 09:37:42;;;;;;;25.27;12.68;;;;;;;2.30;100.00;103592.31;4810208;29;20085;-77
2023/01/24 09:40:21;;;;;;;19.70;11.55;;;;;;;2.25;100.00;103599.53;4818526;29;20130;-77
2023/01/24 09:43:06;;;;;;;20.75;11.05;;;;;;;2.25;100.00;103586.00;4827038;29;20041;-77
2023/01/24 09:45:49;;;;;;;18.40;11.70;;;;;;;2.48;100.00;103595.94;4809447;29;20041;-77
2023/01/24 09:48:18;;;;;;;19.45;11.50;;;;;;;2.34;100.00;103595.91;4814547;29;20096;-77
2023/01/24 09:50:54;;;;;;;22.27;12.30;;;;;;;2.43;100.00;103597.69;4809132;29;20042;-76
2023/01/24 09:53:25;;;;;;;22.23;11.43;;;;;;;2.41;100.00;103586.91;4818655;29;20095;-76
2023/01/24 09:55:52;;;;;;;21.80;10.90;;;;;;;2.57;100.00;103595.91;4802614;29;20106;-77
2023/01/24 09:58:43;;;;;;;21.83;11.48;;;;;;;2.59;100.00;103599.50;4806020;29;20081;-77
2023/01/24 10:01:14;;;;;;;22.38;11.38;;;;;;;2.42;100.00;103601.34;4813730;29;20440;-76
2023/01/24 10:03:42;;;;;;;18.40;11.00;;;;;;;2.48;100.00;103613.03;4809842;29;20035;-77
2023/01/24 10:06:25;;;;;;;27.02;13.68;;;;;;;2.37;100.00;103596.81;4803359;29;20042;-77
2023/01/24 10:09:01;;;;;;;27.80;13.63;;;;;;;2.36;100.00;103613.03;4819228;29;20465;-77
2023/01/24 10:11:43;;;;;;;20.50;11.93;;;;;;;2.44;100.00;103610.34;4806978;29;20103;-77
2023/01/24 10:14:35;;;;;;;23.90;13.60;;;;;;;2.49;100.00;103612.16;4813224;29;20486;-76
2023/01/24 10:17:35;;;;;;;20.30;11.55;;;;;;;2.46;100.00;103614.84;4802142;29;20046;-77
2023/01/24 10:20:27;;;;;;;18.92;11.10;;;;;;;2.48;100.00;103614.84;4797040;29;20054;-76
2023/01/24 10:23:16;;;;;;;21.17;12.73;;;;;;;2.50;100.00;103616.63;4805538;29;20027;-77
2023/01/24 10:25:53;;;;;;;22.88;12.30;;;;;;;2.70;100.00;103615.72;4798965;29;20079;-77
2023/01/24 10:28:32;;;;;;;20.23;12.73;;;;;;;2.57;100.00;103617.53;4826428;29;20502;-77
2023/01/24 10:31:22;;;;;;;22.73;12.65;;;;;;;2.58;100.00;103616.63;4798765;29;20049;-77
2023/01/24 10:33:52;;;;;;;21.48;12.60;;;;;;;2.74;100.00;103613.00;4800462;29;20050;-77
2023/01/24 10:36:42;;;;;;;22.80;12.65;;;;;;;2.65;100.00;103618.41;4809214;29;20046;-77
2023/01/24 10:39:10;;;;;;;18.77;11.82;;;;;;;2.72;100.00;103617.53;4810054;29;20395;-77
2023/01/24 10:41:36;;;;;;;23.75;11.32;;;;;;;2.60;100.00;103617.53;4811370;29;20488;-77
2023/01/24 10:44:13;;;;;;;18.58;11.02;;;;;;;2.65;100.00;103609.41;4807727;29;20103;-76
2023/01/24 10:46:55;;;;;;;15.90;10.27;;;;;;;2.74;100.00;103604.91;4813168;29;20046;-76
2023/01/24 10:49:25;;;;;;;22.45;12.38;;;;;;;2.53;100.00;103596.81;4813687;29;20046;-77
2023/01/24 10:52:11;;;;;;;23.98;11.98;;;;;;;2.67;100.00;103607.59;4813814;29;20379;-75
2023/01/24 10:54:53;;;;;;;19.27;11.30;;;;;;;2.75;100.00;103603.09;4807334;29;20043;-75
2023/01/24 10:57:32;;;;;;;22.23;12.15;;;;;;;2.61;100.00;103600.41;4812000;29;20041;-75
2023/01/24 11:00:25;;;;;;;19.35;10.93;;;;;;;2.65;100.00;103612.13;4808047;29;20117;-75
2023/01/24 11:02:53;;;;;;;18.98;11.82;;;;;;;2.67;100.00;103605.81;4786527;29;20039;-74
2023/01/24 11:05:20;;;;;;;21.50;12.48;;;;;;;2.50;100.00;103600.41;4815714;29;20144;-76
2023/01/24 11:07:51;;;;;;;22.20;13.43;;;;;;;2.67;100.00;103600.41;4790219;29;20126;-76
2023/01/24 11:10:25;;;;;;;18.98;11.43;;;;;;;2.69;100.00;103598.59;4802423;29;20419;-75
2023/01/24 11:12:58;;;;;;;20.23;12.50;;;;;;;2.57;100.00;103598.59;4801919;29;20129;-75
2023/01/24 11:15:29;;;;;;;;;;;;;;;2.70;100.00;103597.69;4808095;29;20042;-74
2023/01/24 11:18:20;;;;;;;20.33;13.00;;;;;;;2.48;100.00;103582.41;4807753;29;20400;-76
2023/01/24 11:20:46;;;;;;;21.20;11.45;;;;;;;2.56;100.00;103588.69;4794146;29;20101;-77
2023/01/24 11:23:16;;;;;;;20.08;12.40;;;;;;;2.66;100.00;103587.78;4767235;29;20491;-76
2023/01/24 11:26:30;;;;;;;21.40;12.80;;;;;;;2.56;100.00;103589.59;4807938;29;20035;-76
2023/01/24 11:29:02;;;;;;;21.00;13.20;;;;;;;2.57;100.00;103586.00;4767220;29;20055;-77
2023/01/24 11:31:39;;;;;;;19.35;11.38;;;;;;;2.65;100.00;103583.25;4796539;29;20507;-76
2023/01/24 11:34:39;;;;;;;20.15;12.45;;;;;;;2.80;100.00;103582.31;4777412;29;20043;-76
2023/01/24 11:37:11;;;;;;;19.75;12.38;;;;;;;2.76;100.00;103583.25;4800162;29;20043;-76
2023/01/24 11:39:52;;;;;;;20.63;12.13;;;;;;;2.62;100.00;103588.66;4796829;29;20043;-75
2023/01/24 11:42:36;;;;;;;22.02;13.52;;;;;;;2.75;100.00;103576.03;4761939;29;20049;-75
2023/01/24 11:45:25;;;;;;;23.83;13.45;;;;;;;2.76;100.00;103569.72;4794851;29;20043;-75
2023/01/24 11:48:16;;;;;;;26.40;13.77;;;;;;;2.89;100.00;103571.50;4800930;29;20054;-75
2023/01/24 11:50:53;;;;;;;21.23;13.15;;;;;;;2.80;100.00;103570.63;4771770;30;20408;-75
2023/01/24 11:53:46;;;;;;;23.25;13.70;;;;;;;2.86;100.00;103567.91;4782772;29;20039;-75
2023/01/24 11:56:33;;;;;;;21.40;12.18;;;;;;;2.89;100.00;103555.25;4772980;29;20491;-75
2023/01/24 11:59:11;;;;;;;20.40;12.80;;;;;;;2.85;100.00;103558.84;4763824;29;20113;-76